Time;durP1;ratioP1;P1;durP2;ratioP2;P2;SDS_P1;SDS_P2;PMS_P1;PMS_P2;Temp;Humidity;BMP_temperature;BMP_pressure;BME280_temperature;BME280_humidity;BME280_pressure;Samples;Min_cycle;Max_cycle;Signal;HPM_P1;HPM_P2
2022/11/07 00:00:47;;;;;;;12.77;5.07;;;;;;;7.78;69.95;100721.00;2071805;28;20292;-79
2022/11/07 00:01:52;;;;;;;15.10;4.88;;;;;;;7.78;70.02;100721.81;2072623;28;20293;-78
2022/11/07 00:02:55;;;;;;;9.70;4.70;;;;;;;7.73;70.01;100718.31;2071878;28;20289;-78
2022/11/07 00:03:58;;;;;;;14.50;5.53;;;;;;;7.72;70.10;100714.00;2070933;28;20300;-78
2022/11/07 00:05:02;;;;;;;9.88;4.90;;;;;;;7.71;70.07;100713.19;2079741;28;20784;-78
2022/11/07 00:06:05;;;;;;;12.05;4.97;;;;;;;7.68;70.19;100712.91;2071436;28;20292;-77
2022/11/07 00:07:08;;;;;;;14.90;5.13;;;;;;;7.69;70.12;100709.97;2055805;28;20298;-78
2022/11/07 00:08:11;;;;;;;10.05;4.35;;;;;;;7.70;70.15;100716.16;2056343;28;20297;-78
2022/11/07 00:09:16;;;;;;;12.60;4.60;;;;;;;7.71;70.09;100720.44;2055094;28;20305;-77
2022/11/07 00:10:19;;;;;;;11.00;4.18;;;;;;;7.72;70.15;100720.16;2065919;28;20285;-78
2022/11/07 00:11:25;;;;;;;12.10;4.22;;;;;;;7.71;70.21;100717.75;2079476;28;20303;-78
2022/11/07 00:12:28;;;;;;;12.65;4.30;;;;;;;7.71;69.86;100713.19;2079943;28;20288;-80
2022/11/07 00:13:30;;;;;;;15.23;4.70;;;;;;;7.70;70.06;100708.94;2079630;28;20657;-77
2022/11/07 00:14:34;;;;;;;11.93;4.72;;;;;;;7.69;69.83;100714.53;2071717;28;20285;-78
2022/11/07 00:15:43;;;;;;;11.20;4.35;;;;;;;7.64;70.36;100713.41;2072186;28;20811;-78
2022/11/07 00:16:45;;;;;;;10.80;4.13;;;;;;;7.65;70.04;100701.66;2072184;28;20756;-78
2022/11/07 00:17:48;;;;;;;8.00;4.05;;;;;;;7.65;70.17;100698.97;2070968;28;20300;-78
2022/11/07 00:18:54;;;;;;;13.70;4.30;;;;;;;7.62;70.13;100707.50;2070224;28;20304;-78
2022/11/07 00:19:57;;;;;;;13.18;4.28;;;;;;;7.59;69.94;100704.53;2070639;28;20301;-81
2022/11/07 00:21:04;;;;;;;11.88;4.60;;;;;;;7.60;70.15;100701.63;2071983;28;20916;-77
2022/11/07 00:22:12;;;;;;;10.65;4.20;;;;;;;7.58;70.38;100695.72;2063953;28;20300;-78
2022/11/07 00:23:15;;;;;;;13.00;4.88;;;;;;;7.58;70.13;100697.59;2072156;28;20285;-77
2022/11/07 00:24:17;;;;;;;9.15;4.03;;;;;;;7.58;70.20;100698.38;2070715;28;20300;-79
2022/11/07 00:25:20;;;;;;;12.18;4.47;;;;;;;7.59;70.05;100688.47;2063001;28;20301;-79
2022/11/07 00:26:24;;;;;;;10.98;4.10;;;;;;;7.59;70.25;100689.28;2071859;28;20693;-79
2022/11/07 00:27:28;;;;;;;12.93;4.47;;;;;;;7.60;70.15;100696.28;2078914;28;20284;-77
2022/11/07 00:28:36;;;;;;;15.50;4.30;;;;;;;7.60;70.43;100701.63;2071410;28;20340;-78
2022/11/07 00:29:41;;;;;;;10.68;4.00;;;;;;;7.60;70.30;100692.78;2065437;28;20281;-77
2022/11/07 00:30:43;;;;;;;13.32;4.38;;;;;;;7.60;70.18;100692.78;2072128;28;20315;-77
2022/11/07 00:31:46;;;;;;;13.48;4.18;;;;;;;7.57;70.13;100688.75;2081269;28;20330;-77
2022/11/07 00:32:48;;;;;;;8.95;3.80;;;;;;;7.60;70.19;100690.13;2089179;28;20294;-77
2022/11/07 00:33:51;;;;;;;11.73;4.35;;;;;;;7.59;70.05;100686.59;2079950;28;20311;-77
2022/11/07 00:34:55;;;;;;;10.68;3.65;;;;;;;7.55;69.87;100677.50;2073110;28;20304;-77
2022/11/07 00:35:58;;;;;;;14.27;4.53;;;;;;;7.56;70.04;100678.28;2072915;28;20792;-77
2022/11/07 00:37:04;;;;;;;11.02;4.00;;;;;;;7.56;69.98;100684.44;2072953;28;20779;-77
2022/11/07 00:38:07;;;;;;;12.93;4.45;;;;;;;7.56;70.11;100678.28;2066212;28;20289;-77
2022/11/07 00:39:12;;;;;;;12.30;3.72;;;;;;;7.53;70.05;100682.28;2073330;28;20288;-79
2022/11/07 00:40:17;;;;;;;9.75;3.67;;;;;;;7.52;69.98;100686.03;2074125;28;20285;-81
2022/11/07 00:41:19;;;;;;;11.68;3.60;;;;;;;7.50;69.98;100676.63;2073023;28;20296;-81
2022/11/07 00:42:21;;;;;;;9.13;3.47;;;;;;;7.48;69.90;100671.56;2081543;28;20295;-82
2022/11/07 00:43:27;;;;;;;12.13;4.30;;;;;;;7.45;70.53;100673.94;2081626;28;20268;-80
2022/11/07 00:44:30;;;;;;;13.10;4.00;;;;;;;7.42;70.24;100676.03;2073344;28;20292;-80
2022/11/07 00:45:33;;;;;;;10.02;3.53;;;;;;;7.41;70.49;100671.75;2073560;28;20296;-80
2022/11/07 00:46:38;;;;;;;10.75;4.03;;;;;;;7.40;70.31;100677.34;2081288;28;20756;-81
2022/11/07 00:47:41;;;;;;;11.48;3.50;;;;;;;7.39;70.40;100667.72;2081501;28;20288;-82
2022/11/07 00:48:43;;;;;;;6.00;3.13;;;;;;;7.37;70.65;100670.63;2056015;28;20302;-80
2022/11/07 00:49:46;;;;;;;13.32;3.53;;;;;;;7.38;70.50;100653.53;2065184;28;20286;-80
2022/11/07 00:50:49;;;;;;;9.73;3.85;;;;;;;7.35;70.79;100647.91;2064453;28;20293;-81
2022/11/07 00:51:52;;;;;;;10.82;3.25;;;;;;;7.33;70.68;100652.69;2072099;28;20729;-81
2022/11/07 00:52:56;;;;;;;10.02;3.50;;;;;;;7.34;70.68;100657.78;2080544;28;20284;-82
2022/11/07 00:54:00;;;;;;;9.77;3.65;;;;;;;7.36;71.00;100652.19;2071862;28;20304;-80
2022/11/07 00:55:07;;;;;;;13.90;3.92;;;;;;;7.38;70.78;100647.41;2065490;28;20645;-80
2022/11/07 00:56:14;;;;;;;10.57;3.50;;;;;;;7.36;70.92;100644.97;2072992;28;20293;-80
2022/11/07 00:57:18;;;;;;;10.45;3.60;;;;;;;7.38;71.24;100655.41;2072673;28;20284;-80
2022/11/07 00:58:22;;;;;;;8.68;3.80;;;;;;;7.39;71.10;100641.78;2080247;28;20636;-80
2022/11/07 00:59:25;;;;;;;8.10;3.83;;;;;;;7.41;71.32;100644.22;2082311;28;20624;-78
2022/11/07 01:00:30;;;;;;;12.43;3.72;;;;;;;7.42;71.64;100640.47;2082133;28;20291;-79
2022/11/07 01:01:33;;;;;;;13.55;4.53;;;;;;;7.41;71.95;100650.38;2065062;28;20285;-77
2022/11/07 01:02:38;;;;;;;9.32;3.47;;;;;;;7.41;72.01;100649.56;2074487;28;20304;-79
2022/11/07 01:05:11;;;;;;;12.70;3.38;;;;;;;7.37;72.56;100643.88;2077098;28;20296;-80
2022/11/07 01:06:15;;;;;;;9.82;3.15;;;;;;;7.38;72.86;100642.84;2076136;28;20292;-78
2022/11/07 01:07:23;;;;;;;9.32;4.15;;;;;;;7.36;73.09;100638.81;2074945;28;20456;-72
2022/11/07 01:08:26;;;;;;;7.93;3.88;;;;;;;7.34;73.30;100636.38;2082427;28;20319;-71
2022/11/07 01:09:31;;;;;;;10.57;4.47;;;;;;;7.34;73.73;100639.03;2082077;28;20303;-71
2022/11/07 01:10:33;;;;;;;12.43;3.88;;;;;;;7.33;73.55;100637.44;2066534;28;20297;-70
2022/11/07 01:11:39;;;;;;;11.10;3.72;;;;;;;7.33;73.81;100626.75;2066332;28;20297;-71
2022/11/07 01:12:44;;;;;;;8.85;3.70;;;;;;;7.31;74.20;100625.38;2082319;28;20287;-70
2022/11/07 01:13:48;;;;;;;10.55;3.85;;;;;;;7.30;74.21;100634.47;2082456;28;20291;-71
2022/11/07 01:14:51;;;;;;;12.57;4.30;;;;;;;7.30;74.73;100621.09;2073815;28;20338;-71
2022/11/07 01:15:53;;;;;;;9.05;4.30;;;;;;;7.31;74.63;100622.72;2058197;28;20290;-70
2022/11/07 01:16:56;;;;;;;9.65;3.85;;;;;;;7.32;75.00;100635.03;2066289;28;20293;-70
2022/11/07 01:18:01;;;;;;;8.85;3.58;;;;;;;7.29;75.14;100624.84;2074249;28;20657;-71
2022/11/07 01:19:06;;;;;;;11.05;4.60;;;;;;;7.29;75.43;100624.84;2073582;28;20293;-71
2022/11/07 01:20:13;;;;;;;11.88;3.95;;;;;;;7.30;75.50;100616.56;2082311;28;20272;-70
2022/11/07 01:21:19;;;;;;;14.32;4.70;;;;;;;7.31;75.61;100614.69;2074798;28;20300;-71
2022/11/07 01:22:22;;;;;;;14.13;4.32;;;;;;;7.28;75.88;100608.00;2089147;28;20295;-71
2022/11/07 01:23:27;;;;;;;10.30;4.07;;;;;;;7.27;76.00;100610.91;2081242;28;20287;-71
2022/11/07 01:24:30;;;;;;;11.75;3.80;;;;;;;7.27;75.91;100601.03;2057413;28;20295;-72
2022/11/07 01:25:32;;;;;;;14.63;4.32;;;;;;;7.22;76.07;100600.16;2065342;28;20741;-72
2022/11/07 01:26:36;;;;;;;16.33;4.38;;;;;;;7.21;76.05;100596.69;2073029;28;20304;-73
2022/11/07 01:27:39;;;;;;;12.82;4.28;;;;;;;7.20;76.13;100601.22;2073186;28;20352;-72
2022/11/07 01:28:45;;;;;;;11.45;4.18;;;;;;;7.15;76.66;100597.69;2073661;28;20289;-72
2022/11/07 01:29:48;;;;;;;17.25;4.05;;;;;;;7.13;76.42;100599.84;2080543;28;20315;-72
2022/11/07 01:30:53;;;;;;;14.82;4.85;;;;;;;7.08;76.97;100587.22;2088743;28;20299;-72
2022/11/07 01:31:56;;;;;;;11.93;3.95;;;;;;;7.07;77.18;100584.81;2088680;28;20283;-73
2022/11/07 01:32:59;;;;;;;13.38;4.05;;;;;;;7.05;77.22;100582.38;2064859;28;20289;-72
2022/11/07 01:34:01;;;;;;;16.50;4.43;;;;;;;7.03;77.38;100584.53;2056788;28;20297;-72
2022/11/07 01:35:06;;;;;;;18.75;4.45;;;;;;;7.04;77.67;100585.31;2074005;28;20289;-72
2022/11/07 01:36:15;;;;;;;13.18;4.63;;;;;;;7.01;78.00;100575.94;2082105;28;20292;-73
2022/11/07 01:37:19;;;;;;;22.27;4.70;;;;;;;7.01;78.10;100578.63;2081152;28;20299;-72
2022/11/07 01:38:22;;;;;;;15.75;4.30;;;;;;;6.98;77.89;100579.13;2073888;28;20301;-73
2022/11/07 01:39:26;;;;;;;14.48;4.65;;;;;;;6.98;78.20;100595.16;2073921;28;20292;-73
2022/11/07 01:40:29;;;;;;;11.52;4.68;;;;;;;6.97;78.73;100577.53;2073914;28;20724;-72
2022/11/07 01:41:36;;;;;;;16.35;4.75;;;;;;;6.91;78.87;100578.53;2074064;28;20287;-72
2022/11/07 01:42:39;;;;;;;12.85;5.13;;;;;;;6.90;79.26;100582.25;2073878;28;20281;-72
2022/11/07 01:43:48;;;;;;;14.50;5.18;;;;;;;6.88;78.84;100589.72;2066652;28;20804;-72
2022/11/07 01:44:54;;;;;;;15.93;5.25;;;;;;;6.85;79.14;100584.88;2065743;28;20304;-72
2022/11/07 01:45:56;;;;;;;13.35;5.15;;;;;;;6.83;79.82;100582.44;2058251;28;20693;-72
2022/11/07 01:47:00;;;;;;;18.20;5.55;;;;;;;6.86;79.80;100583.81;2066000;28;20293;-72
2022/11/07 01:48:05;;;;;;;20.52;5.40;;;;;;;6.87;80.08;100586.25;2065657;28;20289;-73
2022/11/07 01:49:16;;;;;;;12.65;4.55;;;;;;;6.89;80.26;100588.66;2058082;28;20301;-72
2022/11/07 01:50:18;;;;;;;15.45;4.63;;;;;;;6.89;80.10;100589.47;2066929;28;20296;-73
2022/11/07 01:51:21;;;;;;;18.33;4.72;;;;;;;6.87;80.39;100585.41;2072472;28;20321;-72
2022/11/07 01:52:30;;;;;;;20.08;5.57;;;;;;;6.80;80.23;100574.94;2081067;28;20287;-72
2022/11/07 01:53:35;;;;;;;10.27;4.63;;;;;;;6.83;80.42;100584.31;2073885;28;20287;-72
2022/11/07 01:54:45;;;;;;;17.77;5.13;;;;;;;6.82;80.79;100583.53;2073127;28;20029;-72
2022/11/07 01:55:50;;;;;;;12.95;4.43;;;;;;;6.81;80.80;100575.75;2072817;28;20329;-72
2022/11/07 01:57:00;;;;;;;12.65;4.60;;;;;;;6.79;80.71;100570.66;2072588;28;20312;-73
2022/11/07 01:58:05;;;;;;;13.75;5.20;;;;;;;6.81;81.01;100565.03;2059038;28;20305;-72
2022/11/07 01:59:12;;;;;;;15.98;5.40;;;;;;;6.83;81.15;100566.41;2058047;28;20297;-72
2022/11/07 02:00:20;;;;;;;14.82;4.93;;;;;;;6.85;81.07;100566.19;2066265;28;20303;-72
2022/11/07 02:01:24;;;;;;;14.60;5.47;;;;;;;6.85;81.46;100572.31;2072367;28;20285;-73
2022/11/07 02:02:27;;;;;;;15.02;5.65;;;;;;;6.83;81.43;100568.28;2065767;28;20285;-72
2022/11/07 02:03:34;;;;;;;14.30;5.05;;;;;;;6.82;81.15;100572.03;2073829;28;20291;-72
2022/11/07 02:04:37;;;;;;;11.75;5.22;;;;;;;6.82;81.46;100566.69;2073429;28;20307;-72
2022/11/07 02:05:52;;;;;;;15.30;5.10;;;;;;;6.82;81.44;100570.16;2065574;28;20795;-73
2022/11/07 02:06:58;;;;;;;10.68;5.28;;;;;;;6.85;81.73;100566.97;2067664;28;20308;-73
2022/11/07 02:08:05;;;;;;;15.02;5.88;;;;;;;6.86;81.74;100565.09;2067476;28;20281;-73
2022/11/07 02:09:10;;;;;;;11.45;5.05;;;;;;;6.83;81.59;100560.28;2081954;28;20731;-73
2022/11/07 02:10:15;;;;;;;15.45;5.60;;;;;;;6.85;81.47;100560.84;2073864;28;20277;-73
2022/11/07 02:11:23;;;;;;;19.05;5.07;;;;;;;6.85;81.62;100555.50;2066006;28;20281;-74
2022/11/07 02:12:31;;;;;;;11.13;5.30;;;;;;;6.85;81.70;100555.50;2058901;28;20293;-74
2022/11/07 02:13:38;;;;;;;16.50;5.05;;;;;;;6.84;81.52;100559.19;2067408;28;20285;-73
2022/11/07 02:14:45;;;;;;;13.85;5.22;;;;;;;6.82;81.62;100564.00;2073581;28;20308;-75
2022/11/07 02:15:48;;;;;;;17.15;4.82;;;;;;;6.83;81.86;100558.41;2075234;28;20822;-73
2022/11/07 02:16:51;;;;;;;18.40;4.65;;;;;;;6.84;81.57;100567.22;2081885;28;20295;-74
2022/11/07 02:17:56;;;;;;;16.95;5.72;;;;;;;6.88;81.90;100554.97;2065412;28;20290;-74
2022/11/07 02:19:04;;;;;;;12.77;5.28;;;;;;;6.89;81.96;100551.25;2059474;28;20774;-74
2022/11/07 02:20:07;;;;;;;17.10;4.97;;;;;;;6.92;81.68;100551.53;2073290;28;20404;-73
2022/11/07 02:21:34;;;;;;;18.58;5.20;;;;;;;6.95;81.56;100550.22;2081866;28;20679;-74
2022/11/07 02:22:41;;;;;;;14.40;6.13;;;;;;;6.95;81.58;100550.22;2076575;28;20280;-73
2022/11/07 02:24:05;;;;;;;15.65;5.00;;;;;;;6.97;81.39;100548.13;2074436;28;20281;-72
2022/11/07 02:25:14;;;;;;;19.60;4.80;;;;;;;6.97;81.27;100551.59;2073305;28;20296;-72
2022/11/07 02:26:16;;;;;;;13.68;5.55;;;;;;;6.96;81.00;100547.28;2064064;28;20285;-72
2022/11/07 02:27:20;;;;;;;17.90;4.88;;;;;;;6.98;81.00;100547.03;2056602;28;20400;-72
2022/11/07 02:28:26;;;;;;;12.68;4.53;;;;;;;6.98;81.19;100552.38;2072880;28;20672;-72
2022/11/07 02:29:31;;;;;;;17.08;5.30;;;;;;;6.97;81.06;100545.44;2065298;28;20667;-71
2022/11/07 02:30:33;;;;;;;16.42;5.30;;;;;;;6.97;81.28;100543.56;2072728;28;20295;-72
2022/11/07 02:31:35;;;;;;;13.38;4.43;;;;;;;6.95;81.11;100543.00;2080638;28;20341;-71
2022/11/07 02:32:42;;;;;;;11.98;4.97;;;;;;;6.94;81.24;100540.59;2064271;28;20281;-70
2022/11/07 02:33:45;;;;;;;13.05;5.00;;;;;;;6.95;81.38;100536.84;2058094;28;20293;-71
2022/11/07 02:34:58;;;;;;;14.00;5.25;;;;;;;6.96;81.32;100538.47;2063509;28;20681;-71
2022/11/07 02:36:00;;;;;;;17.33;5.10;;;;;;;6.97;81.15;100540.91;2065663;28;20301;-72
2022/11/07 02:37:25;;;;;;;12.13;5.03;;;;;;;7.00;81.38;100536.09;2073737;28;20295;-72
2022/11/07 02:38:34;;;;;;;9.82;4.40;;;;;;;7.02;81.37;100528.63;2081211;28;20288;-72
2022/11/07 02:39:39;;;;;;;17.42;4.82;;;;;;;7.05;81.25;100538.81;2066813;28;20285;-72
2022/11/07 02:40:43;;;;;;;12.40;4.40;;;;;;;7.08;81.00;100528.41;2058174;28;20042;-72
2022/11/07 02:41:48;;;;;;;12.63;5.00;;;;;;;7.10;81.01;100531.63;2066121;28;20289;-71
2022/11/07 02:42:53;;;;;;;14.60;5.07;;;;;;;7.12;80.88;100536.72;2074412;28;20292;-71
2022/11/07 02:44:16;;;;;;;8.80;4.75;;;;;;;7.13;80.72;100527.66;2081326;28;20328;-72
2022/11/07 02:45:19;;;;;;;13.98;5.07;;;;;;;7.13;80.68;100525.78;2083310;28;20629;-73
2022/11/07 02:46:25;;;;;;;12.90;4.78;;;;;;;7.14;80.67;100524.72;2082235;28;20919;-73
2022/11/07 02:47:30;;;;;;;12.93;5.40;;;;;;;7.14;80.43;100524.72;2081546;28;20775;-73
2022/11/07 02:48:41;;;;;;;16.95;5.10;;;;;;;7.13;80.65;100522.31;2073964;28;20280;-73
2022/11/07 02:49:43;;;;;;;16.63;4.68;;;;;;;7.11;80.63;100532.44;2080291;28;20296;-73
2022/11/07 02:50:48;;;;;;;12.38;4.90;;;;;;;7.10;80.38;100515.59;2065510;28;20665;-73
2022/11/07 02:51:50;;;;;;;13.18;5.07;;;;;;;7.10;80.37;100525.50;2073109;28;20296;-73
2022/11/07 02:52:53;;;;;;;14.93;4.97;;;;;;;7.09;80.69;100518.50;2080881;28;20307;-73
2022/11/07 02:53:54;;;;;;;14.95;5.07;;;;;;;7.10;80.49;100517.47;2072249;28;20293;-73
2022/11/07 02:54:58;;;;;;;14.65;4.63;;;;;;;7.08;80.70;100517.72;2072417;28;20304;-72
2022/11/07 02:56:00;;;;;;;11.95;5.28;;;;;;;7.10;80.55;100514.81;2088488;28;20283;-73
2022/11/07 02:57:04;;;;;;;16.85;4.72;;;;;;;7.10;80.47;100518.28;2079900;28;20292;-73
2022/11/07 02:58:06;;;;;;;9.23;4.30;;;;;;;7.10;80.58;100525.50;2080373;28;20287;-73
2022/11/07 02:59:08;;;;;;;16.80;5.38;;;;;;;7.07;80.42;100523.34;2064428;28;20323;-72
2022/11/07 03:00:13;;;;;;;15.35;4.65;;;;;;;7.05;80.33;100520.09;2072090;28;20307;-73
2022/11/07 03:01:15;;;;;;;10.55;5.15;;;;;;;7.04;80.37;100515.81;2072191;28;20291;-73
2022/11/07 03:02:17;;;;;;;14.38;5.13;;;;;;;7.05;80.69;100526.25;2056262;28;20308;-73
2022/11/07 03:03:20;;;;;;;14.90;5.55;;;;;;;7.07;80.84;100521.47;2064720;28;20798;-74
2022/11/07 03:04:23;;;;;;;15.10;5.13;;;;;;;7.07;81.00;100513.44;2064322;28;20293;-73
2022/11/07 03:05:33;;;;;;;11.27;4.88;;;;;;;7.10;80.85;100520.94;2056225;28;20302;-73
2022/11/07 03:06:36;;;;;;;16.17;5.30;;;;;;;7.10;80.69;100526.28;2073224;28;20331;-73
2022/11/07 03:07:43;;;;;;;13.63;5.05;;;;;;;7.10;80.62;100510.25;2072315;28;20295;-72
2022/11/07 03:08:47;;;;;;;15.88;5.53;;;;;;;7.11;80.99;100525.22;2065705;28;20290;-72
2022/11/07 03:09:49;;;;;;;13.60;5.18;;;;;;;7.11;80.74;100511.84;2056509;28;20440;-73
2022/11/07 03:10:57;;;;;;;13.18;5.07;;;;;;;7.12;80.48;100524.16;2057908;28;20290;-73
2022/11/07 03:12:04;;;;;;;13.48;5.28;;;;;;;7.12;80.81;100524.16;2073507;28;20657;-73
2022/11/07 03:13:14;;;;;;;17.42;5.75;;;;;;;7.12;80.59;100534.84;2072410;28;20394;-72
2022/11/07 03:14:19;;;;;;;11.88;5.38;;;;;;;7.10;80.67;100526.28;2073809;28;20749;-73
2022/11/07 03:15:22;;;;;;;22.33;5.25;;;;;;;7.13;80.61;100528.44;2072252;28;20293;-73
2022/11/07 03:16:23;;;;;;;14.40;4.95;;;;;;;7.12;80.88;100529.50;2064455;28;20300;-73
2022/11/07 03:17:25;;;;;;;12.23;5.25;;;;;;;7.12;80.60;100526.03;2072375;28;20297;-73
2022/11/07 03:18:27;;;;;;;18.65;6.45;;;;;;;7.12;80.80;100529.50;2080239;28;20767;-72
2022/11/07 03:19:29;;;;;;;13.90;5.53;;;;;;;7.13;80.56;100525.78;2056301;28;20298;-73
2022/11/07 03:20:32;;;;;;;13.60;4.78;;;;;;;7.15;80.73;100523.63;2056319;28;20301;-73
2022/11/07 03:21:37;;;;;;;14.02;5.43;;;;;;;7.15;80.91;100528.19;2072622;28;20641;-73
2022/11/07 03:22:38;;;;;;;12.38;5.78;;;;;;;7.16;80.85;100530.63;2065635;28;20800;-73
2022/11/07 03:23:41;;;;;;;12.25;6.18;;;;;;;7.18;80.86;100528.47;2057079;28;20388;-73
2022/11/07 03:24:46;;;;;;;13.50;5.65;;;;;;;7.19;80.74;100530.09;2065343;28;20638;-73
2022/11/07 03:25:49;;;;;;;20.02;7.15;;;;;;;7.20;80.63;100520.22;2072323;28;20307;-73
2022/11/07 03:26:51;;;;;;;12.45;5.40;;;;;;;7.20;80.55;100530.91;2072264;28;20292;-73
2022/11/07 03:27:57;;;;;;;13.05;5.80;;;;;;;7.20;80.65;100522.88;2088642;28;20702;-72
2022/11/07 03:29:00;;;;;;;18.55;5.90;;;;;;;7.18;80.42;100522.31;2079716;28;20284;-73
2022/11/07 03:30:02;;;;;;;13.32;6.07;;;;;;;7.20;80.70;100517.53;2064286;28;20297;-73
2022/11/07 03:31:06;;;;;;;18.15;6.15;;;;;;;7.21;80.56;100521.81;2072065;28;20297;-73
2022/11/07 03:32:14;;;;;;;13.10;5.18;;;;;;;7.22;80.60;100509.25;2072594;28;20285;-73
2022/11/07 03:33:17;;;;;;;11.73;5.43;;;;;;;7.20;80.51;100514.88;2072968;28;20288;-72
2022/11/07 03:34:19;;;;;;;19.60;5.55;;;;;;;7.20;80.58;100509.50;2072261;28;20335;-72
2022/11/07 03:35:29;;;;;;;14.43;5.78;;;;;;;7.16;80.43;100511.91;2079091;28;20292;-72
2022/11/07 03:36:33;;;;;;;16.75;5.90;;;;;;;7.15;80.50;100512.94;2080363;28;20283;-71
2022/11/07 03:37:37;;;;;;;13.38;5.68;;;;;;;7.17;80.72;100508.16;2057119;28;20281;-71
2022/11/07 03:38:42;;;;;;;11.82;5.10;;;;;;;7.16;80.68;100501.22;2074312;28;20685;-71
2022/11/07 03:39:48;;;;;;;16.10;5.55;;;;;;;7.16;80.49;100503.06;2095982;28;20294;-72
2022/11/07 03:40:50;;;;;;;18.70;6.43;;;;;;;7.15;80.64;100501.44;2073022;28;20299;-71
2022/11/07 03:41:54;;;;;;;16.08;5.93;;;;;;;7.15;80.65;100501.44;2065051;28;20294;-72
2022/11/07 03:42:56;;;;;;;14.80;6.07;;;;;;;7.13;80.64;100504.41;2073644;28;20292;-72
2022/11/07 03:44:01;;;;;;;16.65;6.20;;;;;;;7.12;80.77;100488.59;2065017;28;20296;-72
2022/11/07 03:45:08;;;;;;;19.50;6.57;;;;;;;7.07;81.02;100489.38;2074834;28;20284;-71
2022/11/07 03:46:14;;;;;;;17.25;6.05;;;;;;;7.06;81.00;100486.94;2072880;28;20304;-71
2022/11/07 03:47:18;;;;;;;14.30;6.03;;;;;;;7.06;80.88;100493.13;2066629;28;20301;-72
2022/11/07 03:48:21;;;;;;;15.77;6.07;;;;;;;7.05;81.07;100488.81;2081223;28;20288;-72
2022/11/07 03:49:25;;;;;;;20.30;6.40;;;;;;;7.05;80.98;100491.50;2081344;28;20376;-72
2022/11/07 03:50:31;;;;;;;14.15;5.85;;;;;;;7.02;81.29;100472.50;2072770;28;20304;-72
2022/11/07 03:51:34;;;;;;;17.38;6.03;;;;;;;7.00;81.15;100483.44;2081046;28;20310;-73
2022/11/07 03:52:37;;;;;;;16.27;6.35;;;;;;;7.01;81.44;100481.56;2080996;28;20336;-73
2022/11/07 03:53:39;;;;;;;14.43;6.13;;;;;;;6.99;81.18;100476.47;2064963;28;20357;-73
2022/11/07 03:54:43;;;;;;;14.68;6.10;;;;;;;7.01;81.61;100477.03;2065429;28;20289;-73
2022/11/07 03:55:46;;;;;;;15.23;5.72;;;;;;;6.99;81.38;100475.66;2073000;28;20285;-72
2022/11/07 03:56:49;;;;;;;15.68;6.75;;;;;;;6.97;81.34;100478.63;2072596;28;20320;-72
2022/11/07 03:57:53;;;;;;;14.10;5.78;;;;;;;6.95;81.69;100481.53;2071905;28;20280;-72
2022/11/07 03:58:56;;;;;;;17.63;6.45;;;;;;;6.95;81.73;100480.72;2080844;28;20661;-72
2022/11/07 04:00:07;;;;;;;17.52;6.63;;;;;;;6.93;81.56;100483.63;2079434;28;20759;-72
2022/11/07 04:01:14;;;;;;;16.83;6.72;;;;;;;6.89;81.88;100487.91;2066659;28;20302;-71
2022/11/07 04:02:18;;;;;;;16.33;6.85;;;;;;;6.88;82.08;100485.50;2072838;28;20304;-71
2022/11/07 04:03:21;;;;;;;16.00;7.03;;;;;;;6.87;82.31;100482.03;2080453;28;20295;-72
2022/11/07 04:04:24;;;;;;;15.25;6.53;;;;;;;6.85;82.06;100477.97;2071844;28;20285;-72
2022/11/07 04:05:26;;;;;;;14.05;6.80;;;;;;;6.84;81.80;100479.03;2071031;28;20296;-72
2022/11/07 04:06:28;;;;;;;18.45;6.55;;;;;;;6.83;82.36;100483.56;2088012;28;20279;-72
2022/11/07 04:07:34;;;;;;;18.73;6.10;;;;;;;6.81;82.50;100475.03;2080128;28;20283;-73
2022/11/07 04:08:38;;;;;;;16.75;6.40;;;;;;;6.82;82.42;100481.16;2072535;28;20307;-73
2022/11/07 04:09:40;;;;;;;16.10;6.78;;;;;;;6.80;82.46;100489.44;2072367;28;20300;-72
2022/11/07 04:10:43;;;;;;;17.70;7.32;;;;;;;6.79;82.61;100481.69;2065180;28;20300;-72
2022/11/07 04:17:19;;;;;;;18.17;6.70;;;;;;;6.72;83.01;100497.91;2081026;28;20307;-72
2022/11/07 04:18:21;;;;;;;16.55;6.53;;;;;;;6.70;83.00;100495.50;2073609;28;20284;-73
2022/11/07 04:19:25;;;;;;;25.98;7.45;;;;;;;6.69;83.16;100491.22;2072865;28;20304;-73
2022/11/07 04:20:28;;;;;;;15.15;7.38;;;;;;;6.69;83.12;100501.91;2080610;28;20295;-72
2022/11/07 04:21:31;;;;;;;17.58;7.43;;;;;;;6.70;83.26;100497.34;2088195;28;20288;-72
2022/11/07 04:22:34;;;;;;;20.02;7.38;;;;;;;6.73;83.19;100486.97;2073297;28;20289;-72
2022/11/07 04:23:36;;;;;;;22.30;7.50;;;;;;;6.73;83.40;100484.28;2081118;28;20288;-72
2022/11/07 04:25:01;;;;;;;19.25;7.10;;;;;;;6.72;82.97;100480.03;2072849;28;20288;-72
2022/11/07 04:27:42;;;;;;;17.88;7.32;;;;;;;6.70;83.13;100481.31;2067343;28;20308;-71
2022/11/07 04:28:48;;;;;;;20.48;7.28;;;;;;;6.73;83.28;100475.47;2071112;28;20285;-71
2022/11/07 04:29:56;;;;;;;22.17;7.28;;;;;;;6.74;83.07;100474.41;2074032;28;20277;-72
2022/11/07 04:30:58;;;;;;;22.02;7.82;;;;;;;6.72;83.01;100474.69;2072835;28;20776;-70
2022/11/07 04:32:01;;;;;;;17.10;7.78;;;;;;;6.70;83.15;100467.97;2072513;28;20304;-71
2022/11/07 04:33:11;;;;;;;19.58;7.55;;;;;;;6.67;83.01;100458.59;2080280;28;20671;-70
2022/11/07 04:34:14;;;;;;;22.02;8.10;;;;;;;6.66;83.42;100467.69;2080666;28;20620;-71
2022/11/07 04:35:21;;;;;;;17.92;7.15;;;;;;;6.64;83.20;100464.44;2057334;28;20946;-72
2022/11/07 04:36:24;;;;;;;20.38;8.07;;;;;;;6.66;83.41;100466.88;2050985;28;20318;-71
2022/11/07 04:37:26;;;;;;;16.58;7.05;;;;;;;6.67;83.27;100463.13;2082120;28;20283;-72
2022/11/07 04:38:31;;;;;;;18.88;6.47;;;;;;;6.68;83.21;100470.91;2088340;28;20283;-73
2022/11/07 04:39:40;;;;;;;18.45;7.90;;;;;;;6.70;83.40;100462.63;2081415;28;20688;-72
2022/11/07 04:40:43;;;;;;;22.73;7.65;;;;;;;6.71;83.22;100459.72;2082223;28;20037;-72
2022/11/07 04:41:47;;;;;;;18.25;6.95;;;;;;;6.72;83.39;100455.97;2081955;28;20851;-72
2022/11/07 04:42:50;;;;;;;17.10;7.10;;;;;;;6.72;83.39;100455.16;2081550;28;20747;-72
2022/11/07 04:43:55;;;;;;;16.50;7.38;;;;;;;6.70;83.35;100452.75;2073200;28;20414;-72
2022/11/07 04:45:03;;;;;;;16.75;6.72;;;;;;;6.72;83.14;100453.31;2066450;28;20801;-71
2022/11/07 04:46:07;;;;;;;18.55;7.20;;;;;;;6.72;83.25;100447.97;2078025;28;20276;-72
2022/11/07 04:47:10;;;;;;;19.30;7.60;;;;;;;6.74;83.29;100445.81;2082560;28;20288;-71
2022/11/07 04:48:16;;;;;;;18.65;7.78;;;;;;;6.73;83.53;100446.88;2075072;28;20301;-71
2022/11/07 04:49:21;;;;;;;20.00;7.88;;;;;;;6.74;83.31;100439.66;2074865;28;20271;-71
2022/11/07 04:50:24;;;;;;;16.92;7.72;;;;;;;6.75;83.16;100427.94;2074905;28;20281;-72
2022/11/07 04:51:26;;;;;;;16.50;7.10;;;;;;;6.75;83.43;100430.63;2065016;28;20297;-73
2022/11/07 04:52:31;;;;;;;15.45;6.93;;;;;;;6.77;83.51;100430.34;2050435;28;20302;-73
2022/11/07 04:53:39;;;;;;;19.80;7.72;;;;;;;6.79;83.38;100433.56;2067142;28;20805;-74
2022/11/07 04:54:41;;;;;;;18.33;8.50;;;;;;;6.79;82.89;100426.34;2074672;28;20291;-71
2022/11/07 04:55:47;;;;;;;20.13;7.45;;;;;;;6.82;83.32;100430.38;2082228;28;20276;-69
2022/11/07 04:56:53;;;;;;;22.65;7.80;;;;;;;6.81;83.22;100420.75;2074826;28;20293;-70
2022/11/07 04:57:55;;;;;;;21.02;8.00;;;;;;;6.81;83.06;100423.41;2066911;28;20292;-69
2022/11/07 04:58:57;;;;;;;26.08;7.20;;;;;;;6.78;82.96;100424.75;2058261;28;20374;-72
2022/11/07 04:59:59;;;;;;;17.70;7.72;;;;;;;6.77;83.44;100412.44;2066253;28;20839;-72
2022/11/07 05:01:02;;;;;;;19.40;7.78;;;;;;;6.78;83.35;100424.75;2074042;28;20289;-71
2022/11/07 05:02:03;;;;;;;17.75;7.43;;;;;;;6.79;83.45;100407.66;2065721;28;20294;-71
2022/11/07 05:03:06;;;;;;;20.55;7.85;;;;;;;6.79;83.16;100417.53;2073190;28;20288;-72
2022/11/07 05:04:09;;;;;;;16.70;7.72;;;;;;;6.79;82.97;100412.19;2073040;28;20296;-71
2022/11/07 05:05:11;;;;;;;20.20;7.53;;;;;;;6.77;83.33;100407.09;2065136;28;20301;-70
2022/11/07 05:06:17;;;;;;;19.88;8.20;;;;;;;6.73;83.22;100406.81;2076507;28;20300;-70
2022/11/07 05:07:22;;;;;;;19.17;9.27;;;;;;;6.76;83.03;100399.34;2090265;28;20290;-71
2022/11/07 05:08:25;;;;;;;18.83;8.80;;;;;;;6.75;83.21;100401.22;2080712;28;20608;-70
2022/11/07 05:09:29;;;;;;;22.75;7.95;;;;;;;6.74;83.17;100404.94;2065916;28;20308;-70
2022/11/07 05:10:32;;;;;;;23.50;8.68;;;;;;;6.71;83.12;100400.94;2065096;28;20293;-69